createdAt,value
2018-11-11T00:00:16.723Z,81.20
2018-11-11T00:00:47.821Z,74.53
2018-11-11T00:01:18.954Z,78.80
2018-11-11T00:01:50.098Z,74.75
2018-11-11T00:02:21.221Z,75.32
2018-11-11T00:02:52.331Z,76.42
2018-11-11T00:03:23.437Z,77.60
2018-11-11T00:03:54.584Z,75.50
2018-11-11T00:04:25.743Z,74.20
2018-11-11T00:04:56.862Z,80.80
2018-11-11T00:05:27.966Z,82.30
2018-11-11T00:05:59.117Z,74.65
2018-11-11T00:06:30.244Z,73.72
2018-11-11T00:07:01.372Z,77.53
2018-11-11T00:07:32.486Z,72.08
2018-11-11T00:08:03.619Z,75.52
2018-11-11T00:08:34.740Z,78.78
2018-11-11T00:09:05.882Z,83.03
2018-11-11T00:09:37.004Z,85.12
2018-11-11T00:10:08.166Z,77.45
2018-11-11T00:10:39.296Z,80.80
2018-11-11T00:11:10.665Z,80.80
2018-11-11T00:11:41.842Z,89.25
2018-11-11T00:12:12.951Z,80.30
2018-11-11T00:12:44.051Z,79.65
2018-11-11T00:13:15.176Z,78.00
2018-11-11T00:13:46.299Z,85.25
2018-11-11T00:14:17.426Z,80.92
2018-11-11T00:14:48.540Z,81.02
2018-11-11T00:15:19.697Z,81.70
2018-11-11T00:15:50.830Z,77.65
2018-11-11T00:16:21.935Z,82.27
2018-11-11T00:16:53.062Z,80.70
2018-11-11T00:17:24.192Z,76.82
2018-11-11T00:17:55.290Z,83.15
2018-11-11T00:18:26.419Z,73.50
2018-11-11T00:18:57.523Z,80.75
2018-11-11T00:19:28.629Z,73.67
2018-11-11T00:19:59.752Z,75.32
2018-11-11T00:20:30.911Z,79.12
2018-11-11T00:21:02.040Z,74.62
2018-11-11T00:21:33.260Z,80.55
2018-11-11T00:22:04.868Z,73.92
2018-11-11T00:22:36.043Z,72.03
2018-11-11T00:23:07.176Z,72.30
2018-11-11T00:23:38.298Z,75.78
2018-11-11T00:24:09.416Z,73.60
2018-11-11T00:24:40.543Z,75.17
2018-11-11T00:25:11.696Z,72.17
2018-11-11T00:25:42.852Z,76.10
2018-11-11T00:26:13.988Z,73.60
2018-11-11T00:26:45.103Z,73.92
2018-11-11T00:27:16.249Z,73.22
2018-11-11T00:27:47.396Z,72.67
2018-11-11T00:28:18.531Z,72.92
2018-11-11T00:28:49.658Z,72.15
2018-11-11T00:29:20.752Z,69.05
2018-11-11T00:29:51.890Z,71.28
2018-11-11T00:30:23.040Z,72.00
2018-11-11T00:30:54.161Z,75.42
2018-11-11T00:31:25.296Z,72.70
2018-11-11T00:31:56.440Z,70.83
2018-11-11T00:32:27.551Z,73.40
2018-11-11T00:32:58.716Z,71.55
2018-11-11T00:33:29.867Z,69.17
2018-11-11T00:34:00.985Z,73.42
2018-11-11T00:34:32.092Z,72.32
2018-11-11T00:35:03.241Z,72.00
2018-11-11T00:35:34.457Z,73.67
2018-11-11T00:36:05.631Z,75.57
2018-11-11T00:36:36.779Z,70.87
2018-11-11T00:37:07.899Z,75.37
2018-11-11T00:37:39.015Z,72.67
2018-11-11T00:38:10.128Z,72.70
2018-11-11T00:38:41.247Z,70.45
2018-11-11T00:39:12.347Z,70.67
2018-11-11T00:39:43.578Z,71.37
2018-11-11T00:40:14.639Z,69.67
2018-11-11T00:40:45.771Z,73.50
2018-11-11T00:41:16.909Z,71.97
2018-11-11T00:41:48.012Z,72.60
2018-11-11T00:42:19.126Z,71.57
2018-11-11T00:42:50.277Z,68.62
2018-11-11T00:43:21.383Z,72.75
2018-11-11T00:43:52.487Z,71.72
2018-11-11T00:44:23.667Z,73.47
2018-11-11T00:44:54.815Z,74.45
2018-11-11T00:45:25.975Z,70.92
2018-11-11T00:45:57.098Z,73.02
2018-11-11T00:46:28.299Z,74.10
2018-11-11T00:46:59.446Z,70.52
2018-11-11T00:47:30.588Z,74.37
2018-11-11T00:48:01.723Z,74.12
2018-11-11T00:48:32.821Z,69.32
2018-11-11T00:49:04.057Z,69.70
2018-11-11T00:49:35.194Z,70.87
2018-11-11T00:50:06.301Z,70.75
2018-11-11T00:50:37.439Z,69.37
2018-11-11T00:51:08.551Z,74.85
2018-11-11T00:51:39.682Z,70.62
2018-11-11T00:52:10.801Z,73.80
2018-11-11T00:52:41.899Z,71.42
2018-11-11T00:53:13.019Z,74.00
2018-11-11T00:53:44.123Z,71.42
2018-11-11T00:54:15.258Z,71.37
2018-11-11T00:54:46.367Z,66.90
2018-11-11T00:55:17.478Z,69.15
2018-11-11T00:55:48.610Z,71.50
2018-11-11T00:56:19.780Z,70.32
2018-11-11T00:56:50.897Z,71.72
2018-11-11T00:57:22.078Z,69.87
2018-11-11T00:57:53.197Z,72.42
2018-11-11T00:58:24.319Z,68.30
2018-11-11T00:58:55.455Z,69.37
2018-11-11T00:59:26.590Z,69.45
2018-11-11T00:59:57.756Z,65.85
2018-11-11T01:00:28.908Z,69.27
2018-11-11T01:01:00.058Z,70.97
2018-11-11T01:01:31.159Z,71.45
2018-11-11T01:02:02.293Z,70.97
2018-11-11T01:02:33.420Z,67.30
2018-11-11T01:03:04.608Z,68.78
2018-11-11T01:03:35.739Z,71.37
2018-11-11T01:04:06.869Z,69.60
2018-11-11T01:04:37.984Z,71.20
2018-11-11T01:05:09.115Z,70.37
2018-11-11T01:05:40.238Z,67.90
2018-11-11T01:06:11.367Z,64.77
2018-11-11T01:06:42.498Z,70.60
2018-11-11T01:07:13.610Z,72.25
2018-11-11T01:07:44.750Z,71.70
2018-11-11T01:08:15.916Z,67.10
2018-11-11T01:08:47.007Z,66.53
2018-11-11T01:09:18.139Z,70.17
2018-11-11T01:09:49.269Z,67.58
2018-11-11T01:10:20.439Z,67.00
2018-11-11T01:10:51.563Z,68.02
2018-11-11T01:11:22.695Z,68.33
2018-11-11T01:11:53.803Z,65.70
2018-11-11T01:12:25.011Z,65.60
2018-11-11T01:12:56.118Z,68.40
2018-11-11T01:13:27.247Z,65.62
2018-11-11T01:13:58.365Z,64.15
2018-11-11T01:14:29.481Z,66.47
2018-11-11T01:15:00.604Z,64.45
2018-11-11T01:15:31.756Z,63.52
2018-11-11T01:16:02.866Z,63.60
2018-11-11T01:16:33.967Z,71.60
2018-11-11T01:17:05.077Z,64.42
2018-11-11T01:17:36.228Z,67.22
2018-11-11T01:18:07.361Z,63.70
2018-11-11T01:18:38.486Z,65.90
2018-11-11T01:19:09.606Z,61.88
2018-11-11T01:19:40.745Z,64.37
2018-11-11T01:20:11.853Z,66.47
2018-11-11T01:20:42.970Z,66.57
2018-11-11T01:21:14.058Z,68.30
2018-11-11T01:21:45.167Z,68.35
2018-11-11T01:22:16.307Z,71.72
2018-11-11T01:22:47.446Z,68.37
2018-11-11T01:23:18.623Z,67.82
2018-11-11T01:23:49.802Z,70.30
2018-11-11T01:24:20.904Z,67.60
2018-11-11T01:24:52.048Z,68.22
2018-11-11T01:25:23.168Z,67.95
2018-11-11T01:25:54.339Z,69.45
2018-11-11T01:26:25.438Z,69.27
2018-11-11T01:26:56.568Z,67.15
2018-11-11T01:27:27.712Z,68.65
2018-11-11T01:27:58.854Z,73.05
2018-11-11T01:28:30.052Z,69.40
2018-11-11T01:29:01.168Z,71.60
2018-11-11T01:29:32.276Z,69.82
2018-11-11T01:30:03.433Z,73.72
2018-11-11T01:30:34.566Z,70.97
2018-11-11T01:31:05.704Z,75.12
2018-11-11T01:31:36.867Z,73.75
2018-11-11T01:32:08.017Z,73.00
2018-11-11T01:32:39.147Z,77.45
2018-11-11T01:33:10.303Z,73.05
2018-11-11T01:33:41.491Z,74.35
2018-11-11T01:34:12.645Z,73.42
2018-11-11T01:34:43.761Z,71.10
2018-11-11T01:35:14.867Z,69.42
2018-11-11T01:35:45.991Z,67.22
2018-11-11T01:36:17.118Z,69.58
2018-11-11T01:36:48.263Z,66.92
2018-11-11T01:37:19.378Z,70.03
2018-11-11T01:37:50.478Z,71.53
2018-11-11T01:38:21.599Z,66.02
2018-11-11T01:38:52.735Z,70.83
2018-11-11T01:39:23.966Z,68.17
2018-11-11T01:39:55.077Z,68.12
2018-11-11T01:40:26.245Z,66.67
2018-11-11T01:40:57.381Z,69.07
2018-11-11T01:41:28.504Z,66.75
2018-11-11T01:41:59.607Z,67.22
2018-11-11T01:42:30.729Z,68.55
2018-11-11T01:43:01.847Z,69.30
2018-11-11T01:43:32.964Z,65.12
2018-11-11T01:44:04.092Z,70.35
2018-11-11T01:44:35.267Z,66.95
2018-11-11T01:45:06.474Z,66.45
2018-11-11T01:45:37.601Z,66.70
2018-11-11T01:46:08.718Z,66.72
2018-11-11T01:46:39.821Z,65.37
2018-11-11T01:47:10.966Z,68.02
2018-11-11T01:47:42.095Z,70.30
2018-11-11T01:48:13.224Z,66.33
2018-11-11T01:48:44.384Z,67.30
2018-11-11T01:49:15.506Z,66.65
2018-11-11T01:49:46.667Z,64.53
2018-11-11T01:50:59.787Z,67.70
2018-11-11T01:51:30.943Z,67.60
2018-11-11T01:52:02.093Z,65.92
2018-11-11T01:52:33.271Z,64.17
2018-11-11T01:53:04.384Z,70.40
2018-11-11T01:53:35.505Z,66.72
2018-11-11T01:54:06.662Z,64.60
2018-11-11T01:54:37.836Z,65.40
2018-11-11T01:55:08.998Z,68.60
2018-11-11T01:56:16.330Z,65.90
2018-11-11T01:56:47.434Z,63.60
2018-11-11T01:57:19.707Z,65.28
2018-11-11T01:57:50.959Z,62.60
2018-11-11T01:58:22.084Z,65.65
2018-11-11T01:58:53.209Z,66.00
2018-11-11T01:59:24.336Z,66.53
2018-11-11T01:59:55.508Z,65.65
2018-11-11T02:00:26.668Z,63.55
2018-11-11T02:00:57.841Z,63.23
2018-11-11T02:01:28.995Z,67.70
2018-11-11T02:02:00.175Z,62.73
2018-11-11T02:02:31.278Z,65.20
2018-11-11T02:03:02.429Z,67.70
2018-11-11T02:03:33.547Z,64.67
2018-11-11T02:04:04.670Z,63.65
2018-11-11T02:04:35.842Z,65.97
2018-11-11T02:05:06.966Z,62.53
2018-11-11T02:05:38.122Z,66.28
2018-11-11T02:06:09.247Z,66.60
2018-11-11T02:06:40.409Z,62.83
2018-11-11T02:07:11.602Z,66.20
2018-11-11T02:07:42.832Z,69.77
2018-11-11T02:08:13.967Z,65.90
2018-11-11T02:08:45.146Z,65.50
2018-11-11T02:09:16.254Z,62.48
2018-11-11T02:09:47.490Z,68.20
2018-11-11T02:10:18.543Z,64.03
2018-11-11T02:10:49.711Z,66.05
2018-11-11T02:11:20.834Z,64.03
2018-11-11T02:11:51.971Z,63.50
2018-11-11T02:12:23.101Z,61.05
2018-11-11T02:12:54.203Z,58.35
2018-11-11T02:13:25.389Z,61.37
2018-11-11T02:13:56.549Z,63.87
2018-11-11T02:14:27.673Z,61.08
2018-11-11T02:14:58.792Z,65.72
2018-11-11T02:15:29.932Z,62.15
2018-11-11T02:16:01.052Z,61.15
2018-11-11T02:16:32.207Z,62.53
2018-11-11T02:17:03.312Z,59.18
2018-11-11T02:17:34.443Z,58.38
2018-11-11T02:18:05.587Z,60.15
2018-11-11T02:18:36.742Z,61.55
2018-11-11T02:19:07.856Z,60.35
2018-11-11T02:19:40.565Z,61.58
2018-11-11T02:20:13.526Z,62.58
2018-11-11T02:20:44.690Z,60.80
2018-11-11T02:21:15.893Z,60.78
2018-11-11T02:21:47.069Z,62.00
2018-11-11T02:22:18.164Z,58.23
2018-11-11T02:22:49.292Z,62.20
2018-11-11T02:23:20.436Z,63.90
2018-11-11T02:23:51.569Z,63.40
2018-11-11T02:24:22.727Z,67.05
2018-11-11T02:24:53.848Z,63.68
2018-11-11T02:25:25.032Z,62.08
2018-11-11T02:25:56.123Z,61.42
2018-11-11T02:26:27.230Z,62.43
2018-11-11T02:26:58.340Z,63.65
2018-11-11T02:27:29.496Z,62.13
2018-11-11T02:28:00.660Z,65.50
2018-11-11T02:28:31.790Z,62.73
2018-11-11T02:29:02.910Z,68.37
2018-11-11T02:29:34.008Z,63.38
2018-11-11T02:30:05.114Z,63.08
2018-11-11T02:30:36.278Z,63.55
2018-11-11T02:31:07.433Z,62.23
2018-11-11T02:31:38.652Z,65.78
2018-11-11T02:32:09.839Z,62.50
2018-11-11T02:32:40.975Z,62.83
2018-11-11T02:33:12.110Z,62.23
2018-11-11T02:33:43.229Z,62.78
2018-11-11T02:34:14.361Z,62.08
2018-11-11T02:34:45.493Z,66.30
2018-11-11T02:35:16.610Z,63.35
2018-11-11T02:35:47.735Z,62.15
2018-11-11T02:36:18.890Z,60.12
2018-11-11T02:36:50.032Z,64.72
2018-11-11T02:37:21.180Z,59.27
2018-11-11T02:37:52.323Z,59.33
2018-11-11T02:38:23.439Z,60.70
2018-11-11T02:38:54.570Z,57.45
2018-11-11T02:39:25.778Z,55.63
2018-11-11T02:39:56.918Z,59.80
2018-11-11T02:40:28.026Z,56.60
2018-11-11T02:40:59.140Z,58.23
2018-11-11T02:41:30.248Z,57.08
2018-11-11T02:42:01.414Z,58.87
2018-11-11T02:42:32.547Z,62.88
2018-11-11T02:43:03.701Z,61.95
2018-11-11T02:43:34.873Z,59.55
2018-11-11T02:44:05.974Z,59.93
2018-11-11T02:44:37.131Z,61.25
2018-11-11T02:45:08.251Z,63.02
2018-11-11T02:45:39.374Z,61.02
2018-11-11T02:46:10.507Z,64.15
2018-11-11T02:46:41.667Z,64.97
2018-11-11T02:47:12.844Z,64.40
2018-11-11T02:47:43.981Z,59.95
2018-11-11T02:48:15.131Z,64.65
2018-11-11T02:48:46.281Z,63.25
2018-11-11T02:49:17.422Z,62.60
2018-11-11T02:49:48.555Z,61.20
2018-11-11T02:50:19.701Z,66.50
2018-11-11T02:50:50.810Z,66.72
2018-11-11T02:51:21.928Z,64.50
2018-11-11T02:51:53.050Z,60.38
2018-11-11T02:52:24.187Z,63.13
2018-11-11T02:52:55.366Z,68.85
2018-11-11T02:53:26.486Z,65.80
2018-11-11T02:53:57.621Z,67.92
2018-11-11T02:54:28.749Z,65.10
2018-11-11T02:55:00.007Z,66.35
2018-11-11T02:55:31.144Z,70.15
2018-11-11T02:56:02.305Z,67.17
2018-11-11T02:56:33.411Z,64.12
2018-11-11T02:57:04.536Z,65.15
2018-11-11T02:57:35.677Z,65.90
2018-11-11T02:58:06.858Z,66.82
2018-11-11T02:58:37.976Z,67.80
2018-11-11T02:59:09.090Z,65.40
2018-11-11T02:59:40.227Z,64.42
2018-11-11T03:00:11.386Z,65.62
2018-11-11T03:00:42.504Z,66.62
2018-11-11T03:01:13.605Z,67.90
2018-11-11T03:01:44.733Z,64.70
2018-11-11T03:02:15.854Z,65.92
2018-11-11T03:02:46.976Z,68.30
2018-11-11T03:03:18.137Z,65.03
2018-11-11T03:03:49.333Z,66.22
2018-11-11T03:04:20.483Z,67.85
2018-11-11T03:04:51.618Z,63.90
2018-11-11T03:05:22.764Z,66.47
2018-11-11T03:05:53.889Z,64.22
2018-11-11T03:06:25.013Z,63.65
2018-11-11T03:06:56.157Z,67.10
2018-11-11T03:07:27.291Z,64.17
2018-11-11T03:07:58.448Z,65.37
2018-11-11T03:08:29.616Z,67.17
2018-11-11T03:09:00.742Z,65.97
2018-11-11T03:09:31.893Z,64.62
2018-11-11T03:10:03.004Z,64.65
2018-11-11T03:10:34.136Z,62.43
2018-11-11T03:11:05.239Z,65.47
2018-11-11T03:11:36.360Z,65.20
2018-11-11T03:12:07.491Z,69.32
2018-11-11T03:12:38.622Z,65.97
2018-11-11T03:13:09.750Z,64.27
2018-11-11T03:13:40.910Z,66.22
2018-11-11T03:14:12.007Z,65.08
2018-11-11T03:14:43.119Z,63.42
2018-11-11T03:15:14.251Z,67.55
2018-11-11T03:15:45.407Z,64.72
2018-11-11T03:16:16.547Z,66.72
2018-11-11T03:16:47.679Z,68.80
2018-11-11T03:17:18.817Z,71.12
2018-11-11T03:17:49.917Z,65.42
2018-11-11T03:18:21.055Z,72.65
2018-11-11T03:18:52.230Z,71.55
2018-11-11T03:19:23.397Z,66.25
2018-11-11T03:19:54.497Z,65.17
2018-11-11T03:20:25.646Z,71.47
2018-11-11T03:20:56.824Z,69.25
2018-11-11T03:21:27.903Z,68.22
2018-11-11T03:21:59.088Z,69.37
2018-11-11T03:22:30.216Z,68.72
2018-11-11T03:23:01.343Z,65.30
2018-11-11T03:23:32.451Z,70.62
2018-11-11T03:24:03.594Z,70.32
2018-11-11T03:24:34.761Z,67.53
2018-11-11T03:25:05.865Z,68.65
2018-11-11T03:25:37.003Z,69.87
2018-11-11T03:26:08.118Z,72.15
2018-11-11T03:26:39.242Z,66.92
2018-11-11T03:27:10.358Z,70.20
2018-11-11T03:27:41.521Z,68.40
2018-11-11T03:28:12.674Z,68.07
2018-11-11T03:28:43.762Z,71.47
2018-11-11T03:29:14.877Z,69.85
2018-11-11T03:29:45.971Z,67.42
2018-11-11T03:30:17.113Z,70.40
2018-11-11T03:30:48.231Z,69.03
2018-11-11T03:31:19.379Z,68.37
2018-11-11T03:31:50.552Z,68.37
2018-11-11T03:32:21.731Z,65.22
2018-11-11T03:32:52.867Z,66.72
2018-11-11T03:33:23.994Z,71.33
2018-11-11T03:33:55.139Z,68.20
2018-11-11T03:34:26.278Z,68.45
2018-11-11T03:34:57.442Z,66.92
2018-11-11T03:35:28.592Z,67.03
2018-11-11T03:35:59.695Z,66.45
2018-11-11T03:36:30.812Z,64.92
2018-11-11T03:37:01.926Z,71.12
2018-11-11T03:37:33.081Z,67.25
2018-11-11T03:38:05.129Z,69.50
2018-11-11T03:38:36.325Z,62.58
2018-11-11T03:39:07.427Z,66.92
2018-11-11T03:39:38.563Z,68.25
2018-11-11T03:40:09.708Z,66.45
2018-11-11T03:40:40.833Z,67.12
2018-11-11T03:41:11.972Z,64.65
2018-11-11T03:41:43.097Z,69.32
2018-11-11T03:42:14.206Z,67.97
2018-11-11T03:42:45.344Z,66.85
2018-11-11T03:43:16.485Z,63.95
2018-11-11T03:43:47.656Z,68.95
2018-11-11T03:44:18.793Z,67.65
2018-11-11T03:44:49.928Z,64.05
2018-11-11T03:45:21.033Z,65.40
2018-11-11T03:45:52.164Z,71.97
2018-11-11T03:46:23.277Z,69.87
2018-11-11T03:46:54.389Z,71.82
2018-11-11T03:47:25.534Z,70.57
2018-11-11T03:47:56.704Z,72.60
2018-11-11T03:48:27.841Z,72.87
2018-11-11T03:48:58.958Z,66.40
2018-11-11T03:49:30.087Z,67.05
2018-11-11T03:50:01.207Z,62.43
2018-11-11T03:50:32.383Z,67.53
2018-11-11T03:51:03.506Z,68.70
2018-11-11T03:51:34.614Z,64.50
2018-11-11T03:52:05.742Z,60.05
2018-11-11T03:52:36.878Z,63.00
2018-11-11T03:53:08.006Z,66.65
2018-11-11T03:53:39.173Z,62.03
2018-11-11T03:54:11.342Z,68.70
2018-11-11T03:54:42.453Z,61.48
2018-11-11T03:55:16.684Z,60.73
2018-11-11T03:55:47.791Z,60.83
2018-11-11T03:56:18.893Z,59.13
2018-11-11T03:56:49.993Z,59.20
2018-11-11T03:57:21.112Z,58.00
2018-11-11T03:57:52.228Z,60.23
2018-11-11T03:58:23.384Z,56.48
2018-11-11T03:58:54.535Z,60.10
2018-11-11T03:59:25.672Z,59.85
2018-11-11T03:59:56.783Z,55.45
2018-11-11T04:00:27.926Z,55.45
2018-11-11T04:00:59.073Z,58.28
2018-11-11T04:01:30.179Z,57.00
2018-11-11T04:02:01.343Z,56.50
2018-11-11T04:02:32.464Z,58.73
2018-11-11T04:03:03.585Z,59.53
2018-11-11T04:03:34.718Z,60.25
2018-11-11T04:04:05.863Z,60.25
2018-11-11T04:04:36.967Z,61.08
2018-11-11T04:05:08.105Z,58.90
2018-11-11T04:05:39.254Z,59.42
2018-11-11T04:06:10.406Z,58.52
2018-11-11T04:06:41.546Z,59.42
2018-11-11T04:07:12.651Z,59.88
2018-11-11T04:07:43.766Z,60.52
2018-11-11T04:08:15.656Z,60.12
2018-11-11T04:08:46.827Z,64.32
2018-11-11T04:09:17.954Z,63.78
2018-11-11T04:09:51.193Z,63.78
2018-11-11T04:10:22.333Z,60.90
2018-11-11T04:10:53.506Z,61.80
2018-11-11T04:11:24.602Z,59.08
2018-11-11T04:11:55.753Z,63.70
2018-11-11T04:12:26.876Z,61.02
2018-11-11T04:12:57.988Z,58.48
2018-11-11T04:13:29.127Z,60.83
2018-11-11T04:14:00.240Z,60.78
2018-11-11T04:14:31.413Z,62.98
2018-11-11T04:15:02.570Z,59.58
2018-11-11T04:15:33.713Z,59.35
2018-11-11T04:16:04.837Z,60.63
2018-11-11T04:16:35.949Z,61.88
2018-11-11T04:17:07.041Z,63.02
2018-11-11T04:17:38.182Z,61.48
2018-11-11T04:18:09.322Z,64.22
2018-11-11T04:18:40.435Z,62.13
2018-11-11T04:19:11.572Z,59.48
2018-11-11T04:19:42.723Z,60.28
2018-11-11T04:20:13.850Z,59.53
2018-11-11T04:20:44.995Z,62.98
2018-11-11T04:21:16.099Z,58.65
2018-11-11T04:21:47.231Z,61.45
2018-11-11T04:22:18.356Z,59.18
2018-11-11T04:22:49.488Z,59.83
2018-11-11T04:23:20.595Z,58.15
2018-11-11T04:23:51.730Z,58.50
2018-11-11T04:24:22.836Z,55.80
2018-11-11T04:24:54.029Z,54.53
2018-11-11T04:25:25.195Z,54.80
2018-11-11T04:25:56.335Z,54.23
2018-11-11T04:26:27.475Z,54.35
2018-11-11T04:26:58.609Z,54.85
2018-11-11T04:27:29.740Z,56.37
2018-11-11T04:28:00.899Z,57.20
2018-11-11T04:28:32.035Z,56.55
2018-11-11T04:29:03.157Z,60.12
2018-11-11T04:29:34.284Z,56.53
2018-11-11T04:30:05.458Z,59.73
2018-11-11T04:30:36.596Z,59.15
2018-11-11T04:31:07.709Z,56.60
2018-11-11T04:31:38.814Z,61.90
2018-11-11T04:32:09.923Z,59.00
2018-11-11T04:32:41.041Z,61.65
2018-11-11T04:33:12.150Z,58.52
2018-11-11T04:33:43.252Z,62.45
2018-11-11T04:34:14.426Z,55.23
2018-11-11T04:34:45.547Z,55.43
2018-11-11T04:35:16.707Z,55.65
2018-11-11T04:35:47.824Z,55.30
2018-11-11T04:36:18.973Z,56.20
2018-11-11T04:36:50.102Z,58.30
2018-11-11T04:37:21.224Z,53.95
2018-11-11T04:37:52.340Z,57.17
2018-11-11T04:38:23.467Z,53.52
2018-11-11T04:38:54.612Z,52.75
2018-11-11T04:39:27.531Z,51.83
2018-11-11T04:39:58.650Z,55.70
2018-11-11T04:40:29.787Z,50.55
2018-11-11T04:41:01.023Z,50.92
2018-11-11T04:41:32.150Z,49.33
2018-11-11T04:42:03.271Z,51.10
2018-11-11T04:42:34.384Z,54.38
2018-11-11T04:43:05.515Z,53.13
2018-11-11T04:43:36.683Z,50.55
2018-11-11T04:44:07.830Z,50.78
2018-11-11T04:44:38.982Z,55.38
2018-11-11T04:45:10.114Z,54.50
2018-11-11T04:45:41.265Z,52.58
2018-11-11T04:46:12.500Z,54.98
2018-11-11T04:46:43.623Z,55.60
2018-11-11T04:47:14.780Z,54.03
2018-11-11T04:47:45.884Z,58.90
2018-11-11T04:48:17.020Z,61.60
2018-11-11T04:48:48.125Z,56.05
2018-11-11T04:49:19.256Z,58.98
2018-11-11T04:49:50.350Z,54.80
2018-11-11T04:50:21.490Z,59.00
2018-11-11T04:50:52.610Z,57.05
2018-11-11T04:51:23.764Z,57.35
2018-11-11T04:51:54.934Z,57.23
2018-11-11T04:52:26.191Z,58.23
2018-11-11T04:52:57.350Z,58.20
2018-11-11T04:53:28.526Z,59.38
2018-11-11T04:53:59.631Z,60.83
2018-11-11T04:54:30.776Z,61.85
2018-11-11T04:55:01.924Z,61.15
2018-11-11T04:55:33.045Z,62.10
2018-11-11T04:56:04.159Z,57.80
2018-11-11T04:56:35.272Z,57.60
2018-11-11T04:57:06.386Z,58.87
2018-11-11T04:57:37.565Z,58.58
2018-11-11T04:58:08.718Z,55.88
2018-11-11T04:58:39.870Z,62.03
2018-11-11T04:59:10.984Z,57.70
2018-11-11T04:59:42.094Z,59.58
2018-11-11T05:00:13.198Z,61.10
2018-11-11T05:00:44.305Z,58.33
2018-11-11T05:01:15.491Z,61.02
2018-11-11T05:01:46.599Z,64.87
2018-11-11T05:02:17.741Z,58.78
2018-11-11T05:02:48.869Z,59.75
2018-11-11T05:03:20.015Z,63.08
2018-11-11T05:03:51.172Z,59.88
2018-11-11T05:04:22.344Z,62.50
2018-11-11T05:04:53.485Z,63.40
2018-11-11T05:05:24.625Z,60.85
2018-11-11T05:05:55.738Z,63.92
2018-11-11T05:06:26.884Z,60.65
2018-11-11T05:06:58.046Z,66.50
2018-11-11T05:07:29.186Z,67.50
2018-11-11T05:08:00.299Z,63.00
2018-11-11T05:08:36.212Z,64.45
2018-11-11T05:09:07.482Z,62.90
2018-11-11T05:09:38.581Z,60.20
2018-11-11T05:10:09.697Z,66.28
2018-11-11T05:10:40.833Z,61.73
2018-11-11T05:11:11.938Z,62.13
2018-11-11T05:11:43.066Z,61.23
2018-11-11T05:12:14.185Z,63.28
2018-11-11T05:12:45.349Z,60.20
2018-11-11T05:13:16.501Z,57.93
2018-11-11T05:13:47.640Z,57.38
2018-11-11T05:14:18.784Z,60.05
2018-11-11T05:14:49.909Z,63.48
2018-11-11T05:15:21.060Z,61.23
2018-11-11T05:15:52.192Z,59.13
2018-11-11T05:16:23.338Z,60.92
2018-11-11T05:16:54.461Z,60.12
2018-11-11T05:17:25.604Z,57.48
2018-11-11T05:17:56.719Z,57.48
2018-11-11T05:18:27.852Z,63.68
2018-11-11T05:18:58.987Z,61.35
2018-11-11T05:19:30.112Z,63.35
2018-11-11T05:20:01.218Z,64.20
2018-11-11T05:20:32.375Z,61.13
2018-11-11T05:21:03.507Z,60.25
2018-11-11T05:21:34.650Z,59.45
2018-11-11T05:22:05.834Z,58.52
2018-11-11T05:22:36.957Z,60.58
2018-11-11T05:23:08.097Z,65.05
2018-11-11T05:23:39.990Z,66.15
2018-11-11T05:24:11.119Z,60.25
2018-11-11T05:24:42.255Z,63.05
2018-11-11T05:25:13.391Z,59.83
2018-11-11T05:25:44.517Z,63.05
2018-11-11T05:26:15.661Z,60.17
2018-11-11T05:26:46.805Z,60.00
2018-11-11T05:27:17.967Z,61.45
2018-11-11T05:27:49.102Z,61.20
2018-11-11T05:28:20.277Z,62.03
2018-11-11T05:28:51.402Z,59.83
2018-11-11T05:29:22.540Z,62.55
2018-11-11T05:29:53.663Z,58.55
2018-11-11T05:30:24.859Z,63.55
2018-11-11T05:30:56.537Z,59.98
2018-11-11T05:31:27.679Z,57.08
2018-11-11T05:31:58.815Z,59.53
2018-11-11T05:32:29.963Z,58.92
2018-11-11T05:33:01.144Z,58.48
2018-11-11T05:33:32.313Z,56.25
2018-11-11T05:34:03.417Z,59.85
2018-11-11T05:34:34.544Z,61.95
2018-11-11T05:35:05.735Z,56.63
2018-11-11T05:35:36.851Z,56.18
2018-11-11T05:36:07.981Z,59.48
2018-11-11T05:36:39.089Z,59.25
2018-11-11T05:37:10.195Z,54.60
2018-11-11T05:37:41.646Z,60.73
2018-11-11T05:38:12.771Z,57.50
2018-11-11T05:38:43.933Z,57.88
2018-11-11T05:39:15.036Z,55.00
2018-11-11T05:39:46.160Z,53.55
2018-11-11T05:40:17.322Z,55.52
2018-11-11T05:40:48.441Z,53.65
2018-11-11T05:41:19.570Z,55.08
2018-11-11T05:41:50.679Z,54.48
2018-11-11T05:42:21.822Z,55.28
2018-11-11T05:42:53.042Z,55.23
2018-11-11T05:43:24.139Z,52.15
2018-11-11T05:43:55.247Z,53.58
2018-11-11T05:44:26.395Z,53.87
2018-11-11T05:44:57.519Z,52.93
2018-11-11T05:45:28.656Z,52.53
2018-11-11T05:45:59.786Z,53.00
2018-11-11T05:46:30.886Z,55.10
2018-11-11T05:47:02.003Z,53.35
2018-11-11T05:47:33.103Z,56.02
2018-11-11T05:48:04.265Z,53.33
2018-11-11T05:48:35.358Z,56.02
2018-11-11T05:49:06.492Z,52.17
2018-11-11T05:49:37.687Z,54.40
2018-11-11T05:50:08.796Z,50.55
2018-11-11T05:50:39.949Z,52.03
2018-11-11T05:51:11.069Z,53.38
2018-11-11T05:51:42.199Z,53.15
2018-11-11T05:52:13.314Z,52.45
2018-11-11T05:52:44.487Z,54.35
2018-11-11T05:53:15.619Z,55.85
2018-11-11T05:53:46.732Z,51.83
2018-11-11T05:54:17.836Z,54.42
2018-11-11T05:54:48.946Z,52.15
2018-11-11T05:55:20.108Z,50.38
2018-11-11T05:55:51.239Z,51.15
2018-11-11T05:56:22.399Z,53.38
2018-11-11T05:56:53.531Z,52.90
2018-11-11T05:57:24.742Z,52.17
2018-11-11T05:57:55.879Z,49.48
2018-11-11T05:58:27.060Z,49.42
2018-11-11T05:59:00.907Z,50.15
2018-11-11T05:59:32.023Z,52.03
2018-11-11T06:00:03.148Z,54.20
2018-11-11T06:00:34.278Z,51.63
2018-11-11T06:01:05.417Z,51.20
2018-11-11T06:01:36.551Z,49.13
2018-11-11T06:02:07.677Z,47.13
2018-11-11T06:02:38.840Z,45.50
2018-11-11T06:03:09.965Z,47.15
2018-11-11T06:03:41.125Z,50.73
2018-11-11T06:04:12.261Z,51.33
2018-11-11T06:04:43.381Z,46.40
2018-11-11T06:05:14.485Z,47.15
2018-11-11T06:05:45.591Z,49.55
2018-11-11T06:06:16.710Z,48.20
2018-11-11T06:06:47.834Z,46.00
2018-11-11T06:07:18.957Z,49.53
2018-11-11T06:07:50.083Z,46.63
2018-11-11T06:08:21.219Z,48.65
2018-11-11T06:08:52.325Z,48.25
2018-11-11T06:09:23.425Z,46.08
2018-11-11T06:09:54.596Z,50.25
2018-11-11T06:10:25.697Z,48.28
2018-11-11T06:10:56.827Z,46.30
2018-11-11T06:11:27.976Z,48.58
2018-11-11T06:11:59.139Z,47.67
2018-11-11T06:12:30.249Z,45.80
2018-11-11T06:13:01.369Z,45.80
2018-11-11T06:13:32.477Z,44.10
2018-11-11T06:14:03.584Z,48.13
2018-11-11T06:14:34.686Z,47.48
2018-11-11T06:15:05.841Z,45.17
2018-11-11T06:15:37.002Z,45.73
2018-11-11T06:16:08.161Z,45.48
2018-11-11T06:16:39.272Z,46.15
2018-11-11T06:17:10.383Z,41.83
2018-11-11T06:17:41.488Z,48.38
2018-11-11T06:18:12.634Z,47.35
2018-11-11T06:18:43.802Z,44.03
2018-11-11T06:19:14.926Z,43.25
2018-11-11T06:19:46.062Z,47.10
2018-11-11T06:20:17.214Z,45.65
2018-11-11T06:20:48.351Z,48.08
2018-11-11T06:21:19.480Z,42.65
2018-11-11T06:21:50.588Z,42.00
2018-11-11T06:22:21.717Z,45.17
2018-11-11T06:22:52.835Z,46.23
2018-11-11T06:23:23.930Z,42.88
2018-11-11T06:23:55.084Z,45.90
2018-11-11T06:24:26.228Z,45.58
2018-11-11T06:24:57.383Z,42.65
2018-11-11T06:25:28.485Z,46.73
2018-11-11T06:25:59.582Z,40.35
2018-11-11T06:26:30.686Z,43.92
2018-11-11T06:27:01.873Z,42.00
2018-11-11T06:27:33.037Z,45.73
2018-11-11T06:28:04.119Z,43.68
2018-11-11T06:28:35.250Z,39.85
2018-11-11T06:29:06.362Z,38.85
2018-11-11T06:29:37.510Z,42.35
2018-11-11T06:30:08.647Z,41.90
2018-11-11T06:30:39.756Z,44.60
2018-11-11T06:31:10.886Z,41.45
2018-11-11T06:31:42.004Z,40.38
2018-11-11T06:32:13.224Z,42.15
2018-11-11T06:32:44.340Z,40.67
2018-11-11T06:33:15.470Z,40.88
2018-11-11T06:33:46.583Z,41.20
2018-11-11T06:34:17.794Z,41.55
2018-11-11T06:34:48.832Z,41.53
2018-11-11T06:35:19.975Z,42.35
2018-11-11T06:35:51.118Z,41.10
2018-11-11T06:36:22.215Z,42.05
2018-11-11T06:36:53.335Z,39.63
2018-11-11T06:37:24.528Z,41.30
2018-11-11T06:37:55.664Z,41.42
2018-11-11T06:38:26.772Z,39.33
2018-11-11T06:38:57.898Z,40.43
2018-11-11T06:39:29.010Z,40.63
2018-11-11T06:40:00.129Z,41.55
2018-11-11T06:40:31.244Z,43.63
2018-11-11T06:41:02.380Z,43.45
2018-11-11T06:41:33.515Z,38.95
2018-11-11T06:42:04.624Z,43.90
2018-11-11T06:42:35.814Z,39.53